sensor_id;sensor_type;location;lat;lon;timestamp;temperature;humidity
26703;DHT22;14316;51.074;3.704;2022-09-17T00:02:17;11.40;99.90
26703;DHT22;14316;51.074;3.704;2022-09-17T00:04:42;11.30;99.90
26703;DHT22;14316;51.074;3.704;2022-09-17T00:07:08;11.30;99.90
26703;DHT22;14316;51.074;3.704;2022-09-17T00:09:34;11.30;99.90
26703;DHT22;14316;51.074;3.704;2022-09-17T00:12:00;11.20;99.90
26703;DHT22;14316;51.074;3.704;2022-09-17T00:14:25;11.20;99.90
26703;DHT22;14316;51.074;3.704;2022-09-17T00:16:53;11.20;99.90
26703;DHT22;14316;51.074;3.704;2022-09-17T00:19:21;11.20;99.90
26703;DHT22;14316;51.074;3.704;2022-09-17T00:21:47;11.20;99.90
26703;DHT22;14316;51.074;3.704;2022-09-17T00:24:14;11.30;99.90
26703;DHT22;14316;51.074;3.704;2022-09-17T00:26:40;11.20;99.90
26703;DHT22;14316;51.074;3.704;2022-09-17T00:29:06;11.20;99.90
26703;DHT22;14316;51.074;3.704;2022-09-17T00:31:33;11.20;99.90
26703;DHT22;14316;51.074;3.704;2022-09-17T00:34:00;11.20;99.90
26703;DHT22;14316;51.074;3.704;2022-09-17T00:36:26;11.20;99.90
26703;DHT22;14316;51.074;3.704;2022-09-17T00:38:54;11.20;99.90
26703;DHT22;14316;51.074;3.704;2022-09-17T00:41:21;11.20;99.90
26703;DHT22;14316;51.074;3.704;2022-09-17T00:43:57;11.30;99.90
26703;DHT22;14316;51.074;3.704;2022-09-17T00:46:37;11.30;99.90
26703;DHT22;14316;51.074;3.704;2022-09-17T00:49:25;11.50;99.90
26703;DHT22;14316;51.074;3.704;2022-09-17T00:51:58;11.50;99.90
26703;DHT22;14316;51.074;3.704;2022-09-17T00:54:27;11.50;99.90
26703;DHT22;14316;51.074;3.704;2022-09-17T00:56:52;11.50;99.90
26703;DHT22;14316;51.074;3.704;2022-09-17T00:59:19;11.60;99.90
26703;DHT22;14316;51.074;3.704;2022-09-17T01:01:46;11.70;99.90
26703;DHT22;14316;51.074;3.704;2022-09-17T01:04:24;11.70;99.90
26703;DHT22;14316;51.074;3.704;2022-09-17T01:07:25;11.70;99.90
26703;DHT22;14316;51.074;3.704;2022-09-17T01:15:49;12.10;99.90
26703;DHT22;14316;51.074;3.704;2022-09-17T01:18:49;12.20;99.90
26703;DHT22;14316;51.074;3.704;2022-09-17T01:21:38;12.10;99.90
26703;DHT22;14316;51.074;3.704;2022-09-17T01:24:45;12.10;99.90
26703;DHT22;14316;51.074;3.704;2022-09-17T01:28:05;12.10;99.90
26703;DHT22;14316;51.074;3.704;2022-09-17T01:30:30;12.10;99.90
26703;DHT22;14316;51.074;3.704;2022-09-17T01:36:28;11.90;99.90
26703;DHT22;14316;51.074;3.704;2022-09-17T01:39:05;11.90;99.90
26703;DHT22;14316;51.074;3.704;2022-09-17T01:41:56;11.80;99.90
26703;DHT22;14316;51.074;3.704;2022-09-17T01:47:15;11.40;99.90
26703;DHT22;14316;51.074;3.704;2022-09-17T01:49:42;11.30;99.90
26703;DHT22;14316;51.074;3.704;2022-09-17T01:52:10;11.30;99.90
26703;DHT22;14316;51.074;3.704;2022-09-17T01:54:42;11.10;99.90
26703;DHT22;14316;51.074;3.704;2022-09-17T01:57:26;11.00;99.90
26703;DHT22;14316;51.074;3.704;2022-09-17T01:59:58;10.90;99.90
26703;DHT22;14316;51.074;3.704;2022-09-17T02:02:33;10.90;99.90
26703;DHT22;14316;51.074;3.704;2022-09-17T02:05:05;10.90;99.90
26703;DHT22;14316;51.074;3.704;2022-09-17T02:07:35;11.00;99.90
26703;DHT22;14316;51.074;3.704;2022-09-17T02:10:06;10.90;99.90
26703;DHT22;14316;51.074;3.704;2022-09-17T02:12:47;10.80;99.90
26703;DHT22;14316;51.074;3.704;2022-09-17T02:15:20;10.70;99.90
26703;DHT22;14316;51.074;3.704;2022-09-17T02:17:51;10.70;99.90
26703;DHT22;14316;51.074;3.704;2022-09-17T02:20:25;10.60;99.90
26703;DHT22;14316;51.074;3.704;2022-09-17T02:23:00;10.60;99.90
26703;DHT22;14316;51.074;3.704;2022-09-17T02:25:41;10.60;99.90
26703;DHT22;14316;51.074;3.704;2022-09-17T02:28:19;10.60;99.90
26703;DHT22;14316;51.074;3.704;2022-09-17T02:30:48;10.50;99.90
26703;DHT22;14316;51.074;3.704;2022-09-17T02:33:14;10.40;99.90
26703;DHT22;14316;51.074;3.704;2022-09-17T02:35:41;10.40;99.90
26703;DHT22;14316;51.074;3.704;2022-09-17T02:38:08;10.30;99.90
26703;DHT22;14316;51.074;3.704;2022-09-17T02:40:46;10.30;99.90
26703;DHT22;14316;51.074;3.704;2022-09-17T02:43:39;10.30;99.90
26703;DHT22;14316;51.074;3.704;2022-09-17T02:46:29;10.30;99.90
26703;DHT22;14316;51.074;3.704;2022-09-17T02:54:23;10.30;99.90
26703;DHT22;14316;51.074;3.704;2022-09-17T02:59:51;10.30;99.90
26703;DHT22;14316;51.074;3.704;2022-09-17T03:03:09;10.20;99.90
26703;DHT22;14316;51.074;3.704;2022-09-17T03:05:17;10.40;99.90
26703;DHT22;14316;51.074;3.704;2022-09-17T03:07:44;10.50;99.90
26703;DHT22;14316;51.074;3.704;2022-09-17T03:10:10;10.50;99.90
26703;DHT22;14316;51.074;3.704;2022-09-17T03:12:36;10.60;99.90
26703;DHT22;14316;51.074;3.704;2022-09-17T03:15:03;10.60;99.90
26703;DHT22;14316;51.074;3.704;2022-09-17T03:17:29;10.70;99.90
26703;DHT22;14316;51.074;3.704;2022-09-17T03:19:55;10.70;99.90
26703;DHT22;14316;51.074;3.704;2022-09-17T03:22:21;10.80;99.90
26703;DHT22;14316;51.074;3.704;2022-09-17T03:24:47;10.90;99.90
26703;DHT22;14316;51.074;3.704;2022-09-17T03:27:12;10.90;99.90
26703;DHT22;14316;51.074;3.704;2022-09-17T03:29:38;10.90;99.90
26703;DHT22;14316;51.074;3.704;2022-09-17T03:32:04;10.90;99.90
26703;DHT22;14316;51.074;3.704;2022-09-17T03:34:30;10.80;99.90
26703;DHT22;14316;51.074;3.704;2022-09-17T03:36:56;10.90;99.90
26703;DHT22;14316;51.074;3.704;2022-09-17T03:39:22;10.90;99.90
26703;DHT22;14316;51.074;3.704;2022-09-17T03:41:48;10.80;99.90
26703;DHT22;14316;51.074;3.704;2022-09-17T03:44:13;11.10;99.90
26703;DHT22;14316;51.074;3.704;2022-09-17T03:46:40;11.10;99.90
26703;DHT22;14316;51.074;3.704;2022-09-17T03:49:06;11.20;99.90
26703;DHT22;14316;51.074;3.704;2022-09-17T03:51:31;11.30;99.90
26703;DHT22;14316;51.074;3.704;2022-09-17T03:53:57;11.20;99.90
26703;DHT22;14316;51.074;3.704;2022-09-17T03:56:23;11.20;99.90
26703;DHT22;14316;51.074;3.704;2022-09-17T03:58:49;11.20;99.90
26703;DHT22;14316;51.074;3.704;2022-09-17T04:01:15;11.10;99.90
26703;DHT22;14316;51.074;3.704;2022-09-17T04:03:41;11.00;99.90
26703;DHT22;14316;51.074;3.704;2022-09-17T04:06:06;11.00;99.90
26703;DHT22;14316;51.074;3.704;2022-09-17T04:08:33;10.90;99.90
26703;DHT22;14316;51.074;3.704;2022-09-17T04:10:58;10.80;99.90
26703;DHT22;14316;51.074;3.704;2022-09-17T04:13:24;10.70;99.90
26703;DHT22;14316;51.074;3.704;2022-09-17T04:15:51;10.70;99.90
26703;DHT22;14316;51.074;3.704;2022-09-17T04:18:17;10.70;99.90
26703;DHT22;14316;51.074;3.704;2022-09-17T04:20:42;10.80;99.90
26703;DHT22;14316;51.074;3.704;2022-09-17T04:23:10;10.70;99.90
26703;DHT22;14316;51.074;3.704;2022-09-17T04:25:36;10.50;99.90
26703;DHT22;14316;51.074;3.704;2022-09-17T04:28:02;10.60;99.90
26703;DHT22;14316;51.074;3.704;2022-09-17T04:30:28;10.60;99.90
26703;DHT22;14316;51.074;3.704;2022-09-17T04:32:54;10.70;99.90
26703;DHT22;14316;51.074;3.704;2022-09-17T04:35:20;10.60;99.90
26703;DHT22;14316;51.074;3.704;2022-09-17T04:37:51;10.70;99.90
26703;DHT22;14316;51.074;3.704;2022-09-17T04:40:17;10.80;99.90
26703;DHT22;14316;51.074;3.704;2022-09-17T04:42:43;10.80;99.90
26703;DHT22;14316;51.074;3.704;2022-09-17T04:45:09;10.80;99.90
26703;DHT22;14316;51.074;3.704;2022-09-17T04:47:38;10.80;99.90
26703;DHT22;14316;51.074;3.704;2022-09-17T04:50:05;10.80;99.90
26703;DHT22;14316;51.074;3.704;2022-09-17T04:52:31;10.70;99.90
26703;DHT22;14316;51.074;3.704;2022-09-17T04:54:57;10.60;99.90
26703;DHT22;14316;51.074;3.704;2022-09-17T04:57:23;10.60;99.90
26703;DHT22;14316;51.074;3.704;2022-09-17T04:59:50;10.50;99.90
26703;DHT22;14316;51.074;3.704;2022-09-17T05:02:16;10.40;99.90
26703;DHT22;14316;51.074;3.704;2022-09-17T05:04:42;10.30;99.90
26703;DHT22;14316;51.074;3.704;2022-09-17T05:07:08;10.30;99.90
26703;DHT22;14316;51.074;3.704;2022-09-17T05:09:33;10.30;99.90
26703;DHT22;14316;51.074;3.704;2022-09-17T05:11:59;10.40;99.90
26703;DHT22;14316;51.074;3.704;2022-09-17T05:14:25;10.40;99.90
26703;DHT22;14316;51.074;3.704;2022-09-17T05:16:51;10.50;99.90
26703;DHT22;14316;51.074;3.704;2022-09-17T05:19:17;10.50;99.90
26703;DHT22;14316;51.074;3.704;2022-09-17T05:21:43;10.50;99.90
26703;DHT22;14316;51.074;3.704;2022-09-17T05:24:08;10.60;99.90
26703;DHT22;14316;51.074;3.704;2022-09-17T05:26:34;10.60;99.90
26703;DHT22;14316;51.074;3.704;2022-09-17T05:29:00;10.70;99.90
26703;DHT22;14316;51.074;3.704;2022-09-17T05:31:26;10.70;99.90
26703;DHT22;14316;51.074;3.704;2022-09-17T05:33:52;10.80;99.90
26703;DHT22;14316;51.074;3.704;2022-09-17T05:36:17;10.70;99.90
26703;DHT22;14316;51.074;3.704;2022-09-17T05:38:43;10.80;99.90
26703;DHT22;14316;51.074;3.704;2022-09-17T05:41:09;10.70;99.90
26703;DHT22;14316;51.074;3.704;2022-09-17T05:43:35;11.00;99.90
26703;DHT22;14316;51.074;3.704;2022-09-17T05:46:03;10.80;99.90
26703;DHT22;14316;51.074;3.704;2022-09-17T05:48:29;10.90;99.90
26703;DHT22;14316;51.074;3.704;2022-09-17T05:50:55;10.90;99.90
26703;DHT22;14316;51.074;3.704;2022-09-17T05:53:20;11.00;99.90
26703;DHT22;14316;51.074;3.704;2022-09-17T05:55:46;11.00;99.90
26703;DHT22;14316;51.074;3.704;2022-09-17T05:58:17;11.00;99.90
26703;DHT22;14316;51.074;3.704;2022-09-17T06:00:44;10.90;99.90
26703;DHT22;14316;51.074;3.704;2022-09-17T06:03:12;10.90;99.90
26703;DHT22;14316;51.074;3.704;2022-09-17T06:05:38;10.90;99.90
26703;DHT22;14316;51.074;3.704;2022-09-17T06:08:04;10.90;99.90
26703;DHT22;14316;51.074;3.704;2022-09-17T06:10:30;10.80;99.90
26703;DHT22;14316;51.074;3.704;2022-09-17T06:12:58;10.80;99.90
26703;DHT22;14316;51.074;3.704;2022-09-17T06:15:26;10.90;99.90
26703;DHT22;14316;51.074;3.704;2022-09-17T06:17:51;10.70;99.90
26703;DHT22;14316;51.074;3.704;2022-09-17T06:20:18;10.80;99.90
26703;DHT22;14316;51.074;3.704;2022-09-17T06:22:44;10.70;99.90
26703;DHT22;14316;51.074;3.704;2022-09-17T06:25:10;10.80;99.90
26703;DHT22;14316;51.074;3.704;2022-09-17T06:27:37;10.90;99.90
26703;DHT22;14316;51.074;3.704;2022-09-17T06:30:04;10.90;99.90
26703;DHT22;14316;51.074;3.704;2022-09-17T06:32:31;11.00;99.90
26703;DHT22;14316;51.074;3.704;2022-09-17T06:34:57;11.10;99.90
26703;DHT22;14316;51.074;3.704;2022-09-17T06:37:27;11.30;99.90
26703;DHT22;14316;51.074;3.704;2022-09-17T06:39:53;11.50;99.90
26703;DHT22;14316;51.074;3.704;2022-09-17T06:42:19;11.50;99.90
26703;DHT22;14316;51.074;3.704;2022-09-17T06:44:45;11.50;99.90
26703;DHT22;14316;51.074;3.704;2022-09-17T06:47:11;11.60;99.90
26703;DHT22;14316;51.074;3.704;2022-09-17T06:49:36;11.70;99.90
26703;DHT22;14316;51.074;3.704;2022-09-17T06:52:02;11.70;99.90
26703;DHT22;14316;51.074;3.704;2022-09-17T06:54:28;11.70;99.90
26703;DHT22;14316;51.074;3.704;2022-09-17T06:56:55;11.80;99.90
26703;DHT22;14316;51.074;3.704;2022-09-17T06:59:21;11.80;99.90
26703;DHT22;14316;51.074;3.704;2022-09-17T07:01:46;11.70;99.90
26703;DHT22;14316;51.074;3.704;2022-09-17T07:04:13;11.70;99.90
26703;DHT22;14316;51.074;3.704;2022-09-17T07:06:38;11.60;99.90
26703;DHT22;14316;51.074;3.704;2022-09-17T07:09:05;11.50;99.90
26703;DHT22;14316;51.074;3.704;2022-09-17T07:11:32;11.60;99.90
26703;DHT22;14316;51.074;3.704;2022-09-17T07:13:58;11.60;99.90
26703;DHT22;14316;51.074;3.704;2022-09-17T07:16:24;11.50;99.90
26703;DHT22;14316;51.074;3.704;2022-09-17T07:18:51;11.60;99.90
26703;DHT22;14316;51.074;3.704;2022-09-17T07:21:17;11.60;99.90
26703;DHT22;14316;51.074;3.704;2022-09-17T07:23:42;11.70;99.90
26703;DHT22;14316;51.074;3.704;2022-09-17T07:26:13;11.80;99.90
26703;DHT22;14316;51.074;3.704;2022-09-17T07:28:40;11.90;99.90
26703;DHT22;14316;51.074;3.704;2022-09-17T07:31:08;12.00;99.90
26703;DHT22;14316;51.074;3.704;2022-09-17T07:33:36;12.00;99.90
26703;DHT22;14316;51.074;3.704;2022-09-17T07:36:04;11.90;99.90
26703;DHT22;14316;51.074;3.704;2022-09-17T07:38:30;11.80;99.90
26703;DHT22;14316;51.074;3.704;2022-09-17T07:41:01;11.70;99.90
26703;DHT22;14316;51.074;3.704;2022-09-17T07:43:29;11.80;99.90
26703;DHT22;14316;51.074;3.704;2022-09-17T07:45:59;11.90;99.90
26703;DHT22;14316;51.074;3.704;2022-09-17T07:48:26;11.90;99.90
26703;DHT22;14316;51.074;3.704;2022-09-17T07:50:52;12.10;99.90
26703;DHT22;14316;51.074;3.704;2022-09-17T07:53:19;12.20;99.90
26703;DHT22;14316;51.074;3.704;2022-09-17T07:55:54;12.60;99.90
26703;DHT22;14316;51.074;3.704;2022-09-17T07:58:22;12.80;99.90
26703;DHT22;14316;51.074;3.704;2022-09-17T08:00:48;13.00;99.90
26703;DHT22;14316;51.074;3.704;2022-09-17T08:03:14;13.10;99.90
26703;DHT22;14316;51.074;3.704;2022-09-17T08:05:40;12.80;99.90
26703;DHT22;14316;51.074;3.704;2022-09-17T08:08:06;12.80;99.90
26703;DHT22;14316;51.074;3.704;2022-09-17T08:10:31;12.70;99.90
26703;DHT22;14316;51.074;3.704;2022-09-17T08:12:58;12.70;99.90
26703;DHT22;14316;51.074;3.704;2022-09-17T08:15:24;12.90;99.90
26703;DHT22;14316;51.074;3.704;2022-09-17T08:17:52;13.20;99.90
26703;DHT22;14316;51.074;3.704;2022-09-17T08:20:17;13.50;99.90
26703;DHT22;14316;51.074;3.704;2022-09-17T08:22:44;13.70;99.90
26703;DHT22;14316;51.074;3.704;2022-09-17T08:25:16;13.90;99.90
26703;DHT22;14316;51.074;3.704;2022-09-17T08:27:41;13.80;99.90
26703;DHT22;14316;51.074;3.704;2022-09-17T08:30:08;14.00;99.90
26703;DHT22;14316;51.074;3.704;2022-09-17T08:32:37;14.10;99.90
26703;DHT22;14316;51.074;3.704;2022-09-17T08:35:03;14.40;99.90
26703;DHT22;14316;51.074;3.704;2022-09-17T08:37:28;14.60;99.90
26703;DHT22;14316;51.074;3.704;2022-09-17T08:39:55;14.60;99.90
26703;DHT22;14316;51.074;3.704;2022-09-17T08:42:38;14.30;99.90
26703;DHT22;14316;51.074;3.704;2022-09-17T08:45:09;14.40;99.90
26703;DHT22;14316;51.074;3.704;2022-09-17T08:47:41;14.60;99.90
26703;DHT22;14316;51.074;3.704;2022-09-17T08:50:30;14.60;99.90
26703;DHT22;14316;51.074;3.704;2022-09-17T08:56:01;14.40;99.90
26703;DHT22;14316;51.074;3.704;2022-09-17T09:07:36;13.20;99.90
26703;DHT22;14316;51.074;3.704;2022-09-17T09:10:22;13.10;99.90
26703;DHT22;14316;51.074;3.704;2022-09-17T09:12:54;12.90;99.90
26703;DHT22;14316;51.074;3.704;2022-09-17T09:15:37;12.80;99.90
26703;DHT22;14316;51.074;3.704;2022-09-17T09:18:40;12.90;99.90
26703;DHT22;14316;51.074;3.704;2022-09-17T09:23:53;12.90;99.90
26703;DHT22;14316;51.074;3.704;2022-09-17T09:34:26;12.90;99.90
26703;DHT22;14316;51.074;3.704;2022-09-17T09:37:04;12.70;99.90
26703;DHT22;14316;51.074;3.704;2022-09-17T09:39:36;12.60;99.90
26703;DHT22;14316;51.074;3.704;2022-09-17T09:44:52;12.70;99.90
26703;DHT22;14316;51.074;3.704;2022-09-17T09:55:51;13.20;99.90
26703;DHT22;14316;51.074;3.704;2022-09-17T09:58:41;13.30;99.90
26703;DHT22;14316;51.074;3.704;2022-09-17T10:01:18;13.50;99.90
26703;DHT22;14316;51.074;3.704;2022-09-17T10:03:49;14.00;99.90
26703;DHT22;14316;51.074;3.704;2022-09-17T10:06:17;14.30;99.90
26703;DHT22;14316;51.074;3.704;2022-09-17T10:11:24;15.20;99.90
26703;DHT22;14316;51.074;3.704;2022-09-17T10:13:50;15.50;99.90
26703;DHT22;14316;51.074;3.704;2022-09-17T10:16:26;15.70;99.90
26703;DHT22;14316;51.074;3.704;2022-09-17T10:21:35;15.30;99.90
26703;DHT22;14316;51.074;3.704;2022-09-17T10:24:02;14.80;99.90
26703;DHT22;14316;51.074;3.704;2022-09-17T10:26:34;14.70;99.90
26703;DHT22;14316;51.074;3.704;2022-09-17T10:29:15;14.80;99.90
26703;DHT22;14316;51.074;3.704;2022-09-17T10:31:53;14.90;99.90
26703;DHT22;14316;51.074;3.704;2022-09-17T10:34:27;15.50;99.90
26703;DHT22;14316;51.074;3.704;2022-09-17T10:36:55;15.70;99.90
26703;DHT22;14316;51.074;3.704;2022-09-17T10:39:37;15.40;99.90
26703;DHT22;14316;51.074;3.704;2022-09-17T10:42:17;15.40;99.90
26703;DHT22;14316;51.074;3.704;2022-09-17T10:44:57;15.10;99.90
26703;DHT22;14316;51.074;3.704;2022-09-17T10:47:29;14.70;99.90
26703;DHT22;14316;51.074;3.704;2022-09-17T10:50:04;14.50;99.90
26703;DHT22;14316;51.074;3.704;2022-09-17T10:52:38;14.40;99.90
26703;DHT22;14316;51.074;3.704;2022-09-17T11:11:46;17.50;99.90
26703;DHT22;14316;51.074;3.704;2022-09-17T11:14:44;18.50;99.90
26703;DHT22;14316;51.074;3.704;2022-09-17T11:32:14;16.60;99.90
26703;DHT22;14316;51.074;3.704;2022-09-17T11:35:01;16.10;99.90
26703;DHT22;14316;51.074;3.704;2022-09-17T11:37:34;16.90;99.90
26703;DHT22;14316;51.074;3.704;2022-09-17T11:40:14;18.00;99.90
26703;DHT22;14316;51.074;3.704;2022-09-17T11:42:55;19.00;99.90
26703;DHT22;14316;51.074;3.704;2022-09-17T11:45:24;19.30;99.90
26703;DHT22;14316;51.074;3.704;2022-09-17T11:48:03;20.00;99.90
26703;DHT22;14316;51.074;3.704;2022-09-17T11:50:39;21.10;99.90
26703;DHT22;14316;51.074;3.704;2022-09-17T11:53:35;22.00;99.90
26703;DHT22;14316;51.074;3.704;2022-09-17T12:01:24;20.30;99.90
26703;DHT22;14316;51.074;3.704;2022-09-17T12:04:20;19.60;99.90
26703;DHT22;14316;51.074;3.704;2022-09-17T12:06:49;19.50;99.90
26703;DHT22;14316;51.074;3.704;2022-09-17T12:09:24;19.70;99.90
26703;DHT22;14316;51.074;3.704;2022-09-17T12:12:09;21.20;99.90
26703;DHT22;14316;51.074;3.704;2022-09-17T12:14:50;21.80;99.90
26703;DHT22;14316;51.074;3.704;2022-09-17T12:17:43;22.70;99.90
26703;DHT22;14316;51.074;3.704;2022-09-17T12:20:30;23.70;99.90
26703;DHT22;14316;51.074;3.704;2022-09-17T12:23:03;22.90;99.90
26703;DHT22;14316;51.074;3.704;2022-09-17T12:28:52;23.00;99.90
26703;DHT22;14316;51.074;3.704;2022-09-17T12:31:44;24.50;99.90
26703;DHT22;14316;51.074;3.704;2022-09-17T12:34:25;25.00;99.90
26703;DHT22;14316;51.074;3.704;2022-09-17T12:40:27;23.30;99.90
26703;DHT22;14316;51.074;3.704;2022-09-17T12:51:44;26.20;99.90
26703;DHT22;14316;51.074;3.704;2022-09-17T12:59:49;20.20;99.90
26703;DHT22;14316;51.074;3.704;2022-09-17T13:02:29;19.00;99.90
26703;DHT22;14316;51.074;3.704;2022-09-17T13:13:44;23.00;99.90
26703;DHT22;14316;51.074;3.704;2022-09-17T13:25:08;22.50;99.90
26703;DHT22;14316;51.074;3.704;2022-09-17T13:27:37;20.90;99.90
26703;DHT22;14316;51.074;3.704;2022-09-17T13:30:05;20.30;99.90
26703;DHT22;14316;51.074;3.704;2022-09-17T13:40:35;18.80;99.90
26703;DHT22;14316;51.074;3.704;2022-09-17T13:45:33;18.90;99.90
26703;DHT22;14316;51.074;3.704;2022-09-17T13:48:21;20.60;99.90
26703;DHT22;14316;51.074;3.704;2022-09-17T13:50:47;21.20;99.90
26703;DHT22;14316;51.074;3.704;2022-09-17T13:53:18;22.00;99.90
26703;DHT22;14316;51.074;3.704;2022-09-17T13:55:59;23.00;99.90
26703;DHT22;14316;51.074;3.704;2022-09-17T13:58:30;24.00;99.90
26703;DHT22;14316;51.074;3.704;2022-09-17T14:00:58;25.40;99.90
26703;DHT22;14316;51.074;3.704;2022-09-17T14:27:03;15.40;99.90
26703;DHT22;14316;51.074;3.704;2022-09-17T14:32:23;15.40;99.90
26703;DHT22;14316;51.074;3.704;2022-09-17T14:35:11;15.80;99.90
26703;DHT22;14316;51.074;3.704;2022-09-17T14:37:39;16.50;99.90
26703;DHT22;14316;51.074;3.704;2022-09-17T14:40:13;18.30;99.90
26703;DHT22;14316;51.074;3.704;2022-09-17T14:42:42;20.10;99.90
26703;DHT22;14316;51.074;3.704;2022-09-17T14:45:32;20.30;99.90
26703;DHT22;14316;51.074;3.704;2022-09-17T14:48:28;19.70;99.90
26703;DHT22;14316;51.074;3.704;2022-09-17T14:53:38;17.10;99.90
26703;DHT22;14316;51.074;3.704;2022-09-17T14:56:04;17.00;99.90
26703;DHT22;14316;51.074;3.704;2022-09-17T14:58:36;16.80;99.90
26703;DHT22;14316;51.074;3.704;2022-09-17T15:01:05;17.60;99.90
26703;DHT22;14316;51.074;3.704;2022-09-17T15:03:31;17.80;99.90
26703;DHT22;14316;51.074;3.704;2022-09-17T15:05:56;17.40;99.90
26703;DHT22;14316;51.074;3.704;2022-09-17T15:08:26;16.80;99.90
26703;DHT22;14316;51.074;3.704;2022-09-17T15:11:13;16.40;99.90
26703;DHT22;14316;51.074;3.704;2022-09-17T15:13:50;16.30;99.90
26703;DHT22;14316;51.074;3.704;2022-09-17T15:16:26;16.10;99.90
26703;DHT22;14316;51.074;3.704;2022-09-17T15:18:57;15.80;99.90
26703;DHT22;14316;51.074;3.704;2022-09-17T15:21:43;15.70;99.90
26703;DHT22;14316;51.074;3.704;2022-09-17T15:27:26;14.80;99.90
26703;DHT22;14316;51.074;3.704;2022-09-17T15:30:00;14.40;99.90
26703;DHT22;14316;51.074;3.704;2022-09-17T15:32:26;14.20;99.90
26703;DHT22;14316;51.074;3.704;2022-09-17T15:37:48;13.90;99.90
26703;DHT22;14316;51.074;3.704;2022-09-17T15:40:26;13.90;99.90
26703;DHT22;14316;51.074;3.704;2022-09-17T15:43:19;14.10;99.90
26703;DHT22;14316;51.074;3.704;2022-09-17T15:45:46;14.10;99.90
26703;DHT22;14316;51.074;3.704;2022-09-17T15:50:58;14.30;99.90
26703;DHT22;14316;51.074;3.704;2022-09-17T15:53:26;14.40;99.90
26703;DHT22;14316;51.074;3.704;2022-09-17T15:56:07;14.30;99.90
26703;DHT22;14316;51.074;3.704;2022-09-17T16:08:56;14.20;99.90
26703;DHT22;14316;51.074;3.704;2022-09-17T16:11:30;14.00;99.90
26703;DHT22;14316;51.074;3.704;2022-09-17T16:13:58;13.90;99.90
26703;DHT22;14316;51.074;3.704;2022-09-17T16:16:33;13.90;99.90
26703;DHT22;14316;51.074;3.704;2022-09-17T16:19:00;13.80;99.90
26703;DHT22;14316;51.074;3.704;2022-09-17T16:21:25;14.10;99.90
26703;DHT22;14316;51.074;3.704;2022-09-17T16:23:52;15.30;99.90
26703;DHT22;14316;51.074;3.704;2022-09-17T16:26:26;16.80;99.90
26703;DHT22;14316;51.074;3.704;2022-09-17T16:28:55;18.00;99.90
26703;DHT22;14316;51.074;3.704;2022-09-17T16:31:24;18.70;99.90
26703;DHT22;14316;51.074;3.704;2022-09-17T16:33:50;19.30;99.90
26703;DHT22;14316;51.074;3.704;2022-09-17T16:36:20;19.10;99.90
26703;DHT22;14316;51.074;3.704;2022-09-17T16:38:46;18.60;99.90
26703;DHT22;14316;51.074;3.704;2022-09-17T16:41:11;18.40;99.90
26703;DHT22;14316;51.074;3.704;2022-09-17T16:43:37;18.30;99.90
26703;DHT22;14316;51.074;3.704;2022-09-17T16:46:06;18.10;99.90
26703;DHT22;14316;51.074;3.704;2022-09-17T16:48:33;18.10;99.90
26703;DHT22;14316;51.074;3.704;2022-09-17T16:50:59;17.80;99.90
26703;DHT22;14316;51.074;3.704;2022-09-17T16:53:28;16.90;99.90
26703;DHT22;14316;51.074;3.704;2022-09-17T16:55:54;16.10;99.90
26703;DHT22;14316;51.074;3.704;2022-09-17T16:58:19;15.20;99.90
26703;DHT22;14316;51.074;3.704;2022-09-17T17:00:45;14.80;99.90
26703;DHT22;14316;51.074;3.704;2022-09-17T17:03:16;14.60;99.90
26703;DHT22;14316;51.074;3.704;2022-09-17T17:05:42;14.30;99.90
26703;DHT22;14316;51.074;3.704;2022-09-17T17:08:12;14.10;99.90
26703;DHT22;14316;51.074;3.704;2022-09-17T17:10:40;14.00;99.90
26703;DHT22;14316;51.074;3.704;2022-09-17T17:13:06;13.70;99.90
26703;DHT22;14316;51.074;3.704;2022-09-17T17:15:32;13.60;99.90
26703;DHT22;14316;51.074;3.704;2022-09-17T17:17:58;13.50;99.90
26703;DHT22;14316;51.074;3.704;2022-09-17T17:20:23;13.50;99.90
26703;DHT22;14316;51.074;3.704;2022-09-17T17:22:49;13.30;99.90
26703;DHT22;14316;51.074;3.704;2022-09-17T17:25:16;13.30;99.90
26703;DHT22;14316;51.074;3.704;2022-09-17T17:27:42;13.30;99.90
26703;DHT22;14316;51.074;3.704;2022-09-17T17:30:09;13.20;99.90
26703;DHT22;14316;51.074;3.704;2022-09-17T17:32:41;13.10;99.90
26703;DHT22;14316;51.074;3.704;2022-09-17T17:35:07;13.00;99.90
26703;DHT22;14316;51.074;3.704;2022-09-17T17:37:33;13.00;99.90
26703;DHT22;14316;51.074;3.704;2022-09-17T17:39:58;13.00;99.90
26703;DHT22;14316;51.074;3.704;2022-09-17T17:42:24;12.90;99.90
26703;DHT22;14316;51.074;3.704;2022-09-17T17:44:50;12.90;99.90
26703;DHT22;14316;51.074;3.704;2022-09-17T17:47:16;12.70;99.90
26703;DHT22;14316;51.074;3.704;2022-09-17T17:49:42;12.70;99.90
26703;DHT22;14316;51.074;3.704;2022-09-17T17:52:08;12.70;99.90
26703;DHT22;14316;51.074;3.704;2022-09-17T17:54:34;12.50;99.90
26703;DHT22;14316;51.074;3.704;2022-09-17T17:57:00;12.50;99.90
26703;DHT22;14316;51.074;3.704;2022-09-17T17:59:25;12.50;99.90
26703;DHT22;14316;51.074;3.704;2022-09-17T18:01:51;12.50;99.90
26703;DHT22;14316;51.074;3.704;2022-09-17T18:04:17;12.40;99.90
26703;DHT22;14316;51.074;3.704;2022-09-17T18:06:43;12.40;99.90
26703;DHT22;14316;51.074;3.704;2022-09-17T18:09:08;12.40;99.90
26703;DHT22;14316;51.074;3.704;2022-09-17T18:11:34;12.40;99.90
26703;DHT22;14316;51.074;3.704;2022-09-17T18:14:00;12.50;99.90
26703;DHT22;14316;51.074;3.704;2022-09-17T18:16:27;12.50;99.90
26703;DHT22;14316;51.074;3.704;2022-09-17T18:18:55;12.60;99.90
26703;DHT22;14316;51.074;3.704;2022-09-17T18:21:22;12.50;99.90
26703;DHT22;14316;51.074;3.704;2022-09-17T18:23:50;12.60;99.90
26703;DHT22;14316;51.074;3.704;2022-09-17T18:26:19;12.60;99.90
26703;DHT22;14316;51.074;3.704;2022-09-17T18:28:45;12.60;99.90
26703;DHT22;14316;51.074;3.704;2022-09-17T18:31:23;12.60;99.90
26703;DHT22;14316;51.074;3.704;2022-09-17T18:34:12;12.50;99.90
26703;DHT22;14316;51.074;3.704;2022-09-17T18:36:38;12.50;99.90
26703;DHT22;14316;51.074;3.704;2022-09-17T18:39:10;12.50;99.90
26703;DHT22;14316;51.074;3.704;2022-09-17T18:41:38;12.50;99.90
26703;DHT22;14316;51.074;3.704;2022-09-17T18:44:09;12.60;99.90
26703;DHT22;14316;51.074;3.704;2022-09-17T18:46:35;12.60;99.90
26703;DHT22;14316;51.074;3.704;2022-09-17T18:49:02;12.60;99.90
26703;DHT22;14316;51.074;3.704;2022-09-17T18:51:29;12.60;99.90
26703;DHT22;14316;51.074;3.704;2022-09-17T18:53:57;12.60;99.90
26703;DHT22;14316;51.074;3.704;2022-09-17T18:56:24;12.50;99.90
26703;DHT22;14316;51.074;3.704;2022-09-17T18:58:52;12.50;99.90
26703;DHT22;14316;51.074;3.704;2022-09-17T19:01:21;12.40;99.90
26703;DHT22;14316;51.074;3.704;2022-09-17T19:03:47;12.30;99.90
26703;DHT22;14316;51.074;3.704;2022-09-17T19:06:13;12.30;99.90